Time;durP1;ratioP1;P1;durP2;ratioP2;P2;SDS_P1;SDS_P2;PMS_P1;PMS_P2;Temp;Humidity;BMP_temperature;BMP_pressure;BME280_temperature;BME280_humidity;BME280_pressure;Samples;Min_cycle;Max_cycle;Signal;HPM_P1;HPM_P2
2022/09/12 00:09:30;;;;;;;0.65;0.20;;;9.40;99.90;;;;;;20747143;28;20080;-51
2022/09/12 00:19:34;;;;;;;1.25;0.25;;;9.30;99.90;;;;;;20738444;28;20034;-58
2022/09/12 00:29:39;;;;;;;0.63;0.20;;;9.40;99.90;;;;;;20701145;28;20095;-50
2022/09/12 00:39:43;;;;;;;1.55;0.20;;;9.50;99.90;;;;;;20732825;28;20034;-51
2022/09/12 00:49:56;;;;;;;1.48;0.20;;;9.40;99.90;;;;;;20756632;28;20489;-48
2022/09/12 01:00:14;;;;;;;1.35;0.10;;;9.50;99.90;;;;;;20730947;28;20038;-52
2022/09/12 01:10:17;;;;;;;2.45;0.20;;;9.60;99.90;;;;;;20755121;28;20037;-47
2022/09/12 01:20:23;;;;;;;0.43;0.20;;;9.50;99.90;;;;;;20747591;28;20175;-49
2022/09/12 01:30:34;;;;;;;0.20;0.20;;;9.40;99.90;;;;;;20748858;28;20546;-50
2022/09/12 01:40:52;;;;;;;0.10;0.03;;;9.40;99.90;;;;;;20732488;28;20045;-50
2022/09/12 01:50:57;;;;;;;1.35;0.30;;;9.30;99.90;;;;;;20744378;28;20049;-54
2022/09/12 02:01:28;;;;;;;0.45;0.10;;;9.30;99.90;;;;;;20746883;28;20041;-48
2022/09/12 02:11:33;;;;;;;0.28;0.10;;;9.20;99.90;;;;;;20732888;28;20411;-49
2022/09/12 02:21:38;;;;;;;0.00;0.00;;;9.20;99.90;;;;;;20763240;28;20042;-47
2022/09/12 02:31:48;;;;;;;0.10;0.00;;;9.20;99.90;;;;;;20735777;28;20564;-52
2022/09/12 02:41:54;;;;;;;0.10;0.10;;;9.00;99.90;;;;;;20736198;28;20096;-52
2022/09/12 02:51:58;;;;;;;0.10;0.03;;;8.80;99.90;;;;;;20739141;28;20105;-53
2022/09/12 03:02:26;;;;;;;0.40;0.13;;;8.90;99.90;;;;;;20738740;28;20038;-49
2022/09/12 03:13:12;;;;;;;0.65;0.10;;;8.90;99.90;;;;;;20814652;28;20037;-52
2022/09/12 03:23:29;;;;;;;0.20;0.10;;;8.80;99.90;;;;;;20719463;28;20091;-50
2022/09/12 03:33:31;;;;;;;1.73;0.20;;;8.70;99.90;;;;;;20739197;28;20042;-50
2022/09/12 03:43:34;;;;;;;0.90;0.60;;;8.70;99.90;;;;;;20720529;28;20061;-48
2022/09/12 03:53:36;;;;;;;2.47;0.90;;;8.70;99.90;;;;;;20747122;28;20046;-58
2022/09/12 04:03:43;;;;;;;3.40;1.08;;;8.70;99.90;;;;;;20718839;28;20038;-50
2022/09/12 04:13:46;;;;;;;1.95;1.25;;;8.70;99.90;;;;;;20735526;28;20049;-50
2022/09/12 04:23:50;;;;;;;3.03;1.42;;;8.70;99.90;;;;;;20721434;28;20042;-48
2022/09/12 04:34:00;;;;;;;2.47;0.80;;;8.70;99.90;;;;;;20778537;28;20398;-51
2022/09/12 04:44:09;;;;;;;1.10;0.70;;;8.60;99.90;;;;;;20757630;28;20041;-52
2022/09/12 04:54:14;;;;;;;0.90;0.65;;;8.50;99.90;;;;;;20750360;28;20050;-48
2022/09/12 05:04:17;;;;;;;0.98;0.50;;;8.50;99.90;;;;;;20733963;28;20041;-51
2022/09/12 05:14:19;;;;;;;0.90;0.30;;;8.50;99.90;;;;;;20748114;28;20489;-51
2022/09/12 05:24:23;;;;;;;1.52;0.30;;;8.50;99.90;;;;;;20745357;28;20092;-51
2022/09/12 05:34:26;;;;;;;0.80;0.40;;;8.50;99.90;;;;;;20755792;28;20041;-46
2022/09/12 05:44:29;;;;;;;2.78;1.20;;;8.60;99.90;;;;;;20739233;28;20088;-48
2022/09/12 05:54:33;;;;;;;2.42;0.82;;;9.00;99.90;;;;;;20710762;28;20065;-49
2022/09/12 06:04:35;;;;;;;1.42;0.50;;;9.30;99.90;;;;;;20725810;28;20065;-53
2022/09/12 06:14:37;;;;;;;2.10;0.82;;;9.60;99.90;;;;;;20724954;28;20555;-47
2022/09/12 06:24:40;;;;;;;2.08;1.00;;;10.00;99.90;;;;;;20724221;28;20554;-47
2022/09/12 06:34:46;;;;;;;2.22;1.40;;;10.20;99.90;;;;;;20719742;28;20077;-46
2022/09/12 06:44:49;;;;;;;4.15;2.20;;;10.30;99.90;;;;;;20726821;28;20030;-48
2022/09/12 06:54:51;;;;;;;1.80;1.35;;;10.30;99.90;;;;;;20737688;28;20046;-46
2022/09/12 07:04:53;;;;;;;3.97;1.50;;;10.40;99.90;;;;;;20721202;28;20072;-47
2022/09/12 07:14:56;;;;;;;4.72;3.20;;;10.50;99.90;;;;;;20720715;28;20041;-49
2022/09/12 07:24:59;;;;;;;4.95;2.50;;;11.30;99.90;;;;;;20720155;28;20033;-58
2022/09/12 07:35:02;;;;;;;4.15;3.42;;;12.60;99.90;;;;;;20737010;28;20034;-46
2022/09/12 07:45:04;;;;;;;3.53;2.95;;;14.00;99.90;;;;;;20719043;28;20479;-47
2022/09/12 07:55:07;;;;;;;3.75;3.13;;;14.80;99.90;;;;;;20722601;28;20054;-55
2022/09/12 08:05:09;;;;;;;6.05;3.30;;;15.00;99.90;;;;;;20720410;28;20034;-47
2022/09/12 08:15:12;;;;;;;8.30;4.30;;;15.20;99.90;;;;;;20750808;28;20042;-46
2022/09/12 08:25:15;;;;;;;4.72;3.90;;;15.70;99.90;;;;;;20751130;28;20663;-57
2022/09/12 08:35:17;;;;;;;4.00;3.45;;;15.90;99.90;;;;;;20737608;28;20053;-60
2022/09/12 08:45:41;;;;;;;4.95;4.15;;;16.20;99.90;;;;;;20732810;28;20104;-46
2022/09/12 08:55:52;;;;;;;5.82;3.28;;;16.40;99.90;;;;;;20736248;28;20498;-46
2022/09/12 09:06:14;;;;;;;5.97;5.03;;;17.00;99.90;;;;;;20747366;28;20340;-60
2022/09/12 09:16:33;;;;;;;3.97;3.22;;;17.30;99.90;;;;;;20730241;28;20490;-60
2022/09/12 09:26:50;;;;;;;4.97;3.72;;;17.90;99.90;;;;;;20729336;28;20490;-49
2022/09/12 09:37:19;;;;;;;5.82;3.70;;;18.60;99.90;;;;;;20728185;28;20034;-59
2022/09/12 09:47:21;;;;;;;6.93;5.17;;;18.90;99.90;;;;;;20723773;28;20537;-60
2022/09/12 09:57:33;;;;;;;6.15;4.35;;;18.90;99.90;;;;;;20727109;28;20034;-49
2022/09/12 10:07:35;;;;;;;6.70;5.35;;;18.60;99.90;;;;;;20743799;28;20088;-60
2022/09/12 10:17:45;;;;;;;6.13;5.35;;;18.90;99.90;;;;;;20758416;28;20045;-60
2022/09/12 10:27:56;;;;;;;7.47;6.03;;;19.10;99.90;;;;;;20737409;28;20061;-47
2022/09/12 10:38:03;;;;;;;7.25;5.65;;;19.80;99.90;;;;;;20722779;28;20107;-47
2022/09/12 10:48:30;;;;;;;6.10;5.18;;;20.00;99.90;;;;;;20726788;28;20097;-60
2022/09/12 10:58:42;;;;;;;5.88;3.85;;;20.90;99.90;;;;;;20739348;28;20034;-60
2022/09/12 11:08:58;;;;;;;5.80;4.78;;;19.70;99.90;;;;;;20729674;28;20037;-48
2022/09/12 11:19:20;;;;;;;5.10;4.60;;;19.40;99.90;;;;;;20742710;28;20034;-61
2022/09/12 11:29:51;;;;;;;5.65;4.78;;;19.20;99.90;;;;;;20720722;28;20033;-61
2022/09/12 11:39:55;;;;;;;4.38;3.97;;;19.20;99.90;;;;;;20754528;28;20030;-47
2022/09/12 11:50:02;;;;;;;7.03;4.43;;;20.00;99.90;;;;;;20716545;28;20394;-58
2022/09/12 12:00:17;;;;;;;5.70;4.95;;;19.50;99.90;;;;;;20776417;28;20095;-61
2022/09/12 12:10:51;;;;;;;8.88;6.38;;;19.60;99.90;;;;;;20735933;28;20037;-47
2022/09/12 12:20:55;;;;;;;8.02;7.22;;;19.80;99.90;;;;;;20758696;28;20486;-46
2022/09/12 12:31:00;;;;;;;8.85;7.13;;;19.50;99.90;;;;;;20722426;28;20386;-45
2022/09/12 12:41:17;;;;;;;9.18;6.90;;;19.60;99.90;;;;;;20730126;28;20096;-61
2022/09/12 12:51:35;;;;;;;9.20;6.37;;;20.20;99.90;;;;;;20732382;28;20062;-49
2022/09/12 13:01:45;;;;;;;10.68;7.07;;;20.00;99.90;;;;;;20750297;28;20038;-47
2022/09/12 13:12:00;;;;;;;6.78;6.07;;;19.80;99.90;;;;;;20769181;28;20065;-49
2022/09/12 13:22:03;;;;;;;7.68;6.20;;;19.40;99.90;;;;;;20773702;28;20069;-48
2022/09/12 13:32:08;;;;;;;7.13;6.43;;;19.10;99.90;;;;;;20748530;28;20110;-61
2022/09/12 13:42:31;;;;;;;9.45;6.40;;;19.00;99.90;;;;;;20728332;28;20045;-48
2022/09/12 13:52:37;;;;;;;7.78;6.32;;;18.60;99.90;;;;;;20743044;28;20054;-47
2022/09/12 14:02:39;;;;;;;8.27;7.47;;;18.60;99.90;;;;;;20742782;28;20483;-46
2022/09/12 14:12:42;;;;;;;9.32;7.82;;;18.70;99.90;;;;;;20726689;28;20096;-46
2022/09/12 14:22:46;;;;;;;8.23;6.13;;;18.40;99.90;;;;;;20741658;28;20041;-47
2022/09/12 14:33:10;;;;;;;6.75;5.68;;;18.30;99.90;;;;;;20727432;28;20041;-49
2022/09/12 14:43:24;;;;;;;7.18;6.28;;;18.30;99.90;;;;;;20740703;28;20042;-48
2022/09/12 14:53:34;;;;;;;5.53;5.00;;;18.30;99.90;;;;;;20746388;28;20050;-47
2022/09/12 15:03:50;;;;;;;;;;;18.40;99.90;;;;;;20722472;28;20041;-60
2022/09/12 15:13:52;;;;;;;8.27;5.82;;;18.40;99.90;;;;;;20725246;28;19917;-47
2022/09/12 15:23:54;;;;;;;6.80;5.55;;;18.10;99.90;;;;;;20721452;28;20049;-46
2022/09/12 15:33:59;;;;;;;9.48;6.88;;;18.00;99.90;;;;;;20724319;28;20042;-46
2022/09/12 15:44:07;;;;;;;8.07;7.03;;;17.70;99.90;;;;;;20704579;28;20084;-59
2022/09/12 15:54:16;;;;;;;7.85;6.07;;;17.50;99.90;;;;;;20737416;28;20564;-47
2022/09/12 16:04:24;;;;;;;8.18;7.38;;;17.20;99.90;;;;;;20720574;28;20041;-47
2022/09/12 16:14:26;;;;;;;7.40;6.68;;;16.60;99.90;;;;;;20739033;28;20029;-60
2022/09/12 16:24:28;;;;;;;8.45;6.97;;;16.20;99.90;;;;;;20743419;28;20061;-46
2022/09/12 16:34:31;;;;;;;10.55;7.65;;;16.10;99.90;;;;;;20770871;28;20042;-46
2022/09/12 16:44:33;;;;;;;9.50;8.30;;;15.90;99.90;;;;;;20718122;28;20038;-47
2022/09/12 16:54:35;;;;;;;9.70;8.52;;;15.60;99.90;;;;;;20732391;28;20054;-59
2022/09/12 17:04:39;;;;;;;10.88;9.68;;;15.30;99.90;;;;;;20748890;28;20038;-56
2022/09/12 17:14:41;;;;;;;11.30;9.00;;;15.10;99.90;;;;;;20730845;28;20065;-59
2022/09/12 17:24:43;;;;;;;12.77;9.55;;;14.80;99.90;;;;;;20730417;28;20041;-59
2022/09/12 17:34:48;;;;;;;12.95;9.70;;;14.50;99.90;;;;;;20745717;28;20054;-46
2022/09/12 17:44:50;;;;;;;17.02;13.88;;;14.20;99.90;;;;;;20761942;28;20080;-59
2022/09/12 17:54:52;;;;;;;13.15;11.52;;;13.80;99.90;;;;;;20727648;28;20045;-60
2022/09/12 18:04:56;;;;;;;12.80;11.02;;;13.60;99.90;;;;;;20754484;28;20503;-46
2022/09/12 18:14:58;;;;;;;12.98;11.23;;;13.60;99.90;;;;;;20741954;28;20046;-46
2022/09/12 18:25:01;;;;;;;12.52;10.93;;;13.50;99.90;;;;;;20749519;28;20033;-59
2022/09/12 18:35:04;;;;;;;13.15;11.70;;;13.50;99.90;;;;;;20728267;28;20084;-59
2022/09/12 18:45:07;;;;;;;14.82;11.57;;;13.40;99.90;;;;;;20802903;28;20033;-45
2022/09/12 18:55:10;;;;;;;19.00;14.40;;;13.20;99.90;;;;;;20742730;28;20041;-50
2022/09/12 19:05:14;;;;;;;16.85;13.95;;;13.10;99.90;;;;;;20738115;28;20084;-45
2022/09/12 19:15:17;;;;;;;19.38;15.27;;;13.00;99.90;;;;;;20745538;28;20107;-59
2022/09/12 19:25:20;;;;;;;20.58;15.32;;;13.10;99.90;;;;;;20721066;28;20088;-59
2022/09/12 19:35:22;;;;;;;21.63;16.90;;;13.10;99.90;;;;;;20754741;28;20095;-47
2022/09/12 19:45:24;;;;;;;22.60;18.75;;;12.90;99.90;;;;;;20719889;28;20490;-50
2022/09/12 19:55:27;;;;;;;25.58;20.42;;;12.90;99.90;;;;;;20639714;28;20054;-50
2022/09/12 20:05:34;;;;;;;27.90;22.40;;;12.70;99.90;;;;;;20649566;28;20042;-58
2022/09/12 20:15:36;;;;;;;29.35;23.95;;;12.50;99.90;;;;;;20673936;28;20038;-47
2022/09/12 20:25:39;;;;;;;27.15;23.10;;;12.30;99.90;;;;;;20653864;28;20034;-46
2022/09/12 20:35:41;;;;;;;31.35;25.77;;;12.20;99.90;;;;;;20652626;28;20069;-58
2022/09/12 20:45:44;;;;;;;36.83;28.98;;;12.00;99.90;;;;;;20655125;28;20066;-48
2022/09/12 20:55:50;;;;;;;36.55;27.75;;;11.90;99.90;;;;;;20732349;28;20038;-58
2022/09/12 21:05:52;;;;;;;41.33;29.80;;;11.90;99.90;;;;;;20747207;28;20029;-46
2022/09/12 21:16:03;;;;;;;35.50;28.83;;;12.00;99.90;;;;;;20730078;28;20096;-59
2022/09/12 21:26:06;;;;;;;35.27;27.27;;;12.30;99.90;;;;;;20758378;28;20038;-47
2022/09/12 21:36:09;;;;;;;31.15;25.73;;;12.50;99.90;;;;;;20766539;28;20060;-46
2022/09/12 21:46:12;;;;;;;32.28;23.55;;;12.60;99.90;;;;;;20748138;28;20058;-47
2022/09/12 21:56:14;;;;;;;28.27;24.08;;;12.70;99.90;;;;;;20727805;28;20402;-47
2022/09/12 22:06:17;;;;;;;28.77;24.00;;;12.70;99.90;;;;;;20757970;28;20585;-59
2022/09/12 22:16:20;;;;;;;28.70;22.58;;;12.70;99.90;;;;;;20752075;28;20475;-47
2022/09/12 22:26:22;;;;;;;30.67;25.05;;;12.70;99.90;;;;;;20724820;28;20061;-47
2022/09/12 22:36:25;;;;;;;29.63;24.60;;;12.60;99.90;;;;;;20725269;28;20092;-46
2022/09/12 22:46:28;;;;;;;31.27;25.27;;;12.70;99.90;;;;;;20752255;28;20046;-46
2022/09/12 22:56:32;;;;;;;30.05;23.35;;;12.60;99.90;;;;;;20763455;28;20037;-47
2022/09/12 23:06:35;;;;;;;35.53;25.90;;;12.50;99.90;;;;;;20724329;28;20092;-47
2022/09/12 23:16:38;;;;;;;37.75;29.27;;;12.30;99.90;;;;;;20734666;28;20038;-46
2022/09/12 23:26:41;;;;;;;43.85;31.80;;;12.00;99.90;;;;;;20729518;28;20057;-46
2022/09/12 23:36:44;;;;;;;46.63;34.97;;;11.70;99.90;;;;;;20754036;28;20081;-48
2022/09/12 23:46:47;;;;;;;39.65;31.67;;;11.50;99.90;;;;;;20739833;28;20108;-48
2022/09/12 23:56:49;;;;;;;49.78;37.42;;;11.30;99.90;;;;;;20719544;28;20073;-46
